Sand Spring Valley, Nevada Weather observations

Data are for 10 minute period ending at time listed.
 Day   Time   Solar   Ave.   Ave.  Ave.  Vector  Max.   Baro.   Total    
  of    of     Rad.   Air    Rel.  Wind   Wind   Wind  Press.  Precip.   
Year   Day            Temp.  Hum.  Speed  Dir.   Gust                    
2014   (PST)  Kw/m2    F      %     mph   deg.    mph    mb.     in.     
-------------------------------------------------------------------------
 263   12:00   0.53   78.7    34    4.1   324     6.9   854.2    0.00 
 263   12:10   0.55   79.2    33    3.9   336     6.5   854.0    0.00 
 263   12:20   0.31   80.1    30    3.6   334     6.7   853.8    0.00 
 263   12:30   0.45   80.0    33    2.4   314     4.5   853.5    0.00 
 263   12:40   0.64   80.3    31    3.2   329     6.2   853.2    0.00 
 263   12:50   0.65   81.5    29    2.9    10     6.6   853.1    0.00 
 263   13:00   0.52   81.2    29    3.1    15     7.5   852.9    0.00 
 263   13:10   0.54   81.7    31    1.2   302     3.5   852.7    0.00 
 263   13:20   0.63   82.3    32    1.7   283     4.0   852.5    0.00 
 263   13:30   0.70   82.1    31    3.5   331     6.1   852.3    0.00 
 263   13:40   0.37   81.9    31    3.7   335     6.3   852.2    0.00 
 263   13:50   0.34   80.9    30    3.4   358     5.3   852.1    0.00 
 263   14:00   0.30   81.4    29    2.9   338     6.0   851.9    0.00 
 263   14:10   0.29   80.7    38    1.7   306     3.3   851.8    0.00 
 263   14:20   0.29   81.2    34    1.0   305     2.5   851.8    0.00 
 263   14:30   0.26   82.2    32    0.8    27     2.7   851.6    0.00 
 263   14:40   0.21   81.5    35    1.8   263     3.9   851.4    0.00 
 263   14:50   0.14   80.0    34    3.3   205     5.9   851.5    0.00 
 263   15:00   0.09   80.3    40    1.4   194     4.7   851.5    0.00 
 263   15:10   0.15   80.0    36    6.3   184    10.4   851.5    0.00 
 263   15:20   0.40   77.8    42    6.3   245    11.8   851.5    0.00 
 263   15:30   0.03   78.6    42    8.1   260    13.9   851.4    0.00 
 263   15:40   0.26   79.3    42    6.0   260    12.9   851.3    0.00 
 263   15:50   0.18   79.9    38    2.7   254     7.0   851.4    0.00 
 263   16:00   0.04   79.7    36    5.6   285     9.8   851.2    0.00 
 263   16:10   0.08   75.8    44    5.8   290     8.8   851.1    0.00 
 263   16:20   0.06   74.8    41    9.7   273    18.0   851.2    0.00 
 263   16:30   0.07   73.0    40   11.9   271    19.1   851.5    0.00 
 263   16:40   0.08   72.0    41   12.6   268    16.7   851.6    0.00 
 263   16:50   0.07   71.2    41   12.1   261    18.9   851.7    0.00 
 263   17:00   0.05   71.2    39   12.9   264    19.1   851.6    0.00 
 263   17:10   0.04   70.6    39   12.4   264    18.4   851.7    0.00 
 263   17:20   0.04   70.2    40   12.8   264    21.9   851.8    0.00 
 263   17:30   0.02   70.2    41   14.4   257    23.4   851.8    0.00 
 263   17:40   0.01   69.2    45   16.1   256    23.5   852.0    0.00 
 263   17:50   0.00   68.6    45   12.8   251    20.0   852.0    0.00 
 263   18:00   0.00   68.6    42   14.9   252    24.0   851.9    0.00 
 263   18:10   0.00   67.3    48   12.4   257    18.1   852.0    0.00 
 263   18:20   0.00   66.0    52   11.3   259    18.9   852.2    0.00 
 263   18:30   0.00   66.6    50    9.4   259    16.6   852.4    0.00 
 263   18:40   0.00   67.3    48    9.2   257    13.5   852.7    0.01 
 263   18:50   0.00   65.3    57    6.2   268    14.2   853.0    0.00 
 263   19:00   0.00   63.2    66    5.2   122     8.6   853.7    0.01 
 263   19:10   0.00   65.9    55    2.9    89     7.2   853.8    0.00 
 263   19:20   0.00   62.9    70    4.6    96     6.9   854.3    0.06 
 263   19:30   0.00   61.2    74    2.7    68     3.7   854.3    0.00 
 263   19:40   0.00   62.7    69    1.8   166     4.0   854.7    0.00 
 263   19:50   0.00   63.1    70    3.6   104     4.9   855.0    0.04 
 263   20:00   0.00   63.1    68    3.4    22     6.3   854.7    0.01 
 263   20:10   0.00   63.0    74    6.6    16     9.3   854.8    0.00 
 263   20:20   0.00   62.5    78    7.7     8    13.6   854.7    0.00 
 263   20:30   0.00   61.6    83   10.5   352    17.3   854.6    0.00 
 263   20:40   0.00   61.5    84    9.5   359    14.9   854.7    0.00 
 263   20:50   0.00   61.2    85    9.7     4    16.9   854.7    0.00 
 263   21:00   0.00   61.3    84    8.6   357    14.2   854.9    0.00 
 263   21:10   0.00   61.6    82    6.6     6    12.2   855.0    0.00 
 263   21:20   0.00   62.2    75    5.3    17    10.4   855.4    0.00 
 263   21:30   0.00   61.7    79    2.4    60     5.3   855.4    0.00 
 263   21:40   0.00   61.2    82    3.1    22     5.8   855.2    0.00 
 263   21:50   0.00   60.6    84    1.4   276     5.7   855.3    0.01 
 263   22:00   0.00   59.0    87    4.9   229     7.0   855.6    0.00 
 263   22:10   0.00   59.6    88    5.8   233     8.4   855.8    0.00 
 263   22:20   0.00   60.1    87    3.5   308     6.3   855.7    0.00 
 263   22:30   0.00   60.6    83    5.4   350     8.3   855.5    0.00 
 263   22:40   0.00   60.1    84    4.2   336     6.8   855.5    0.00 
 263   22:50   0.00   59.1    87    5.6   309     7.6   855.3    0.01 
 263   23:00   0.00   59.3    87    4.8   254     6.9   855.7    0.00 
 263   23:10   0.00   58.8    89    5.0   290     7.5   855.7    0.00 
 263   23:20   0.00   58.9    88    4.8   320     7.7   855.6    0.00 
 263   23:30   0.00   59.1    88    5.2   335     8.1   855.3    0.00 
 263   23:40   0.00   59.3    88    2.9     0     5.9   855.3    0.00 
 263   23:50   0.00   58.5    89    1.7   122     4.2   855.3    0.00 
 264    0:00   0.00   58.4    90    1.9   192     4.0   855.3    0.00 
 264    0:10   0.00   58.5    90    3.6   176     6.1   855.4    0.00 
 264    0:20   0.00   58.7    89    3.1   205     5.0   855.4    0.00 
 264    0:30   0.00   58.7    89    3.0   226     4.0   855.3    0.00 
 264    0:40   0.00   58.6    90    0.3   226     3.3   855.1    0.01 
 264    0:50   0.00   58.5    90    1.0   272     4.2   855.0    0.00 
 264    1:00   0.00   58.4    91    3.3   191     5.8   855.2    0.00 
 264    1:10   0.00   58.4    92    2.4   218     6.1   855.2    0.02 
 264    1:20   0.00   58.3    92    3.2   261     6.9   855.0    0.01 
 264    1:30   0.00   58.1    93    3.8   313     5.3   854.6    0.00 
 264    1:40   0.00   58.3    92    5.9   344     9.2   854.4    0.00 
 264    1:50   0.00   58.8    90    6.2   353     9.6   854.2    0.00 
 264    2:00   0.00   58.9    89    3.0     7     6.6   854.6    0.00 
 264    2:10   0.00   59.0    88    1.9    19     3.8   854.6    0.00 
 264    2:20   0.00   58.9    88    2.1   339     3.4   854.8    0.00 
 264    2:30   0.00   58.7    87    0.7   326     1.5   854.8    0.00 
 264    2:40   0.00   57.5    88    1.7   140     5.0   854.9    0.00 
 264    2:50   0.00   57.3    87    1.8    51     3.6   854.9    0.00 
 264    3:00   0.00   56.6    88    0.5   359     2.3   854.8    0.00 
 264    3:10   0.00   55.9    88    3.7   293     5.7   854.9    0.00 
 264    3:20   0.00   55.6    92    3.7   292     5.3   854.8    0.00 
 264    3:30   0.00   56.0    90    2.3   328     3.4   854.6    0.00 
 264    3:40   0.00   56.2    89    2.3   319     3.7   854.5    0.00 
 264    3:50   0.00   55.2    87    2.5   294     3.8   854.5    0.00 
 264    4:00   0.00   54.2    90    0.3   275     2.2   854.5    0.00 
 264    4:10   0.00   54.3    92    0.0     0     0.0   854.6    0.00 
 264    4:20   0.00   53.4    90    0.6   261     2.6   854.6    0.00 
 264    4:30   0.00   51.5    92    2.2   260     5.0   854.6    0.00 
 264    4:40   0.00   51.4    93    2.8   229     4.7   854.6    0.00 
 264    4:50   0.00   52.0    94    3.8   232     5.9   854.7    0.00 
 264    5:00   0.00   52.9    95    4.6   248     5.8   854.7    0.00 
 264    5:10   0.00   52.6    94    1.1   226     2.8   854.8    0.00 
 264    5:20   0.00   52.0    93    1.6   261     3.4   854.9    0.00 
 264    5:30   0.00   53.2    95    0.1   245     1.6   855.0    0.00 
 264    5:40   0.00   55.0    92    0.8   246     2.8   855.0    0.00 
 264    5:50   0.00   53.5    92    2.7   183     4.1   855.0    0.00 
 264    6:00   0.00   53.5    93    3.1   181     5.3   855.1    0.00 
 264    6:10   0.01   54.2    93    4.1   204     6.1   855.2    0.00 
 264    6:20   0.04   54.7    92    1.2   215     2.9   855.2    0.00 
 264    6:30   0.14   54.7    93    1.4   294     2.7   855.3    0.00 
 264    6:40   0.07   56.0    93    2.0   276     2.8   855.4    0.00 
 264    6:50   0.05   56.4    93    1.2   270     2.0   855.5    0.00 
 264    7:00   0.05   56.8    92    0.9   266     3.4   855.6    0.00 
 264    7:10   0.21   57.7    90    2.9   314     5.0   855.5    0.00 
 264    7:20   0.13   59.5    88    5.4   285     7.5   855.6    0.00 
 264    7:30   0.13   60.3    85    6.1   273     8.4   855.8    0.00 
 264    7:40   0.14   60.8    83    5.4   288     7.7   855.8    0.00 
 264    7:50   0.14   60.9    82    4.7   274     7.7   855.9    0.00 
 264    8:00   0.27   61.4    81    4.3   256     6.7   856.0    0.00 
 264    8:10   0.17   62.2    79    3.9   291     7.0   855.9    0.00 
 264    8:20   0.23   62.9    76    1.9   305     5.2   855.9    0.00 
 264    8:30   0.02   63.4    74    2.1    36     4.7   855.9    0.00 
 264    8:40   0.04   62.9    75    0.7    47     2.6   856.0    0.00 
 264    8:50   0.09   62.5    77    0.2   281     1.4   856.0    0.00 
 264    9:00   0.23   63.2    77    2.0   142     3.8   856.2    0.00 
 264    9:10   0.02   65.1    72    0.7   263     2.7   856.1    0.00 
 264    9:20   0.27   65.5    70    2.4    90     5.4   855.9    0.00 
 264    9:30   0.28   65.9    70    3.7    54     5.9   856.1    0.00 
 264    9:40   0.35   65.7    69    1.0    30     3.7   856.1    0.00 
 264    9:50   0.39   67.2    67    1.2    32     3.6   856.0    0.00 
 264   10:00   0.75   67.0    67    3.3    18     5.8   856.0    0.00 
 264   10:10   0.37   67.3    67    2.3   284     4.7   856.0    0.00 
 264   10:20   0.62   67.7    66    2.6   312     5.5   855.8    0.00 
 264   10:30   0.41   68.6    66    2.0   254     5.3   855.6    0.00 
 264   10:40   0.45   68.8    64    1.1   325     4.5   855.7    0.00 
 264   10:50   0.51   70.9    61    0.5    34     2.4   855.7    0.00 
 264   11:00   0.63   70.3    62    3.4     6     6.8   855.6    0.00 
 264   11:10   0.76   69.8    63    1.8    50     4.5   855.6    0.00 
 264   11:20   0.73   71.4    60    1.3   201     4.2   855.5    0.00 
 264   11:30   0.66   71.8    60    2.1    60     5.3   855.4    0.00 
 264   11:40   0.72   71.8    59    2.4    52     5.6   855.1    0.00 
 264   11:50   0.71   73.0    59    2.6   104     6.4   854.9    0.00 

Return to Sand Spring Valley graphs page.


Western Regional Climate Center,wrcc@dri.edu